Time;durP1;ratioP1;P1;durP2;ratioP2;P2;SDS_P1;SDS_P2;PMS_P1;PMS_P2;Temp;Humidity;BMP_temperature;BMP_pressure;BME280_temperature;BME280_humidity;BME280_pressure;Samples;Min_cycle;Max_cycle;Signal;HPM_P1;HPM_P2
2021/11/01 00:01:40;;;;;;;0.13;0.13;;;14.50;99.90;;;;;;5093834;28;20043;-79
2021/11/01 00:04:05;;;;;;;0.63;0.20;;;14.50;99.90;;;;;;5092768;28;20028;-79
2021/11/01 00:06:32;;;;;;;0.03;0.03;;;14.50;99.90;;;;;;5092487;28;20034;-79
2021/11/01 00:08:59;;;;;;;0.00;0.00;;;14.50;99.90;;;;;;5094070;28;20043;-79
2021/11/01 00:11:25;;;;;;;0.20;0.20;;;14.60;99.90;;;;;;5092158;28;20038;-79
2021/11/01 00:13:51;;;;;;;0.00;0.00;;;14.60;99.90;;;;;;5092563;28;20028;-79
2021/11/01 00:16:17;;;;;;;0.00;0.00;;;14.70;99.90;;;;;;5092350;28;20040;-80
2021/11/01 00:18:43;;;;;;;0.10;0.10;;;14.70;99.90;;;;;;5093537;28;20451;-79
2021/11/01 00:21:09;;;;;;;0.38;0.38;;;14.80;99.90;;;;;;5093396;28;20123;-79
2021/11/01 00:23:36;;;;;;;0.52;0.30;;;14.80;99.90;;;;;;5093516;28;20110;-79
2021/11/01 00:26:01;;;;;;;0.20;0.20;;;14.80;99.90;;;;;;5093369;28;20027;-80
2021/11/01 00:28:27;;;;;;;0.20;0.20;;;14.80;99.90;;;;;;5092396;28;20032;-80
2021/11/01 00:30:56;;;;;;;0.25;0.25;;;14.70;99.90;;;;;;5093426;28;20039;-80
2021/11/01 00:33:24;;;;;;;0.15;0.15;;;14.70;99.90;;;;;;5093311;28;20493;-79
2021/11/01 00:35:50;;;;;;;0.17;0.17;;;14.70;99.90;;;;;;5092283;28;20033;-79
2021/11/01 00:38:16;;;;;;;0.00;0.00;;;14.60;99.90;;;;;;5091939;28;20028;-80
2021/11/01 00:40:42;;;;;;;0.70;0.70;;;14.60;99.90;;;;;;5091812;28;20161;-80
2021/11/01 00:43:08;;;;;;;0.00;0.00;;;14.50;99.90;;;;;;5093282;28;20040;-80
2021/11/01 00:45:35;;;;;;;1.98;1.25;;;14.50;99.90;;;;;;5093325;28;20024;-79
2021/11/01 00:48:02;;;;;;;0.00;0.00;;;14.60;99.90;;;;;;5092948;28;20036;-80
2021/11/01 00:50:31;;;;;;;0.00;0.00;;;14.60;99.90;;;;;;5093226;28;20032;-80
2021/11/01 00:52:58;;;;;;;0.15;0.15;;;14.60;99.90;;;;;;5091944;28;20032;-79
2021/11/01 00:55:47;;;;;;;0.70;0.43;;;14.60;99.90;;;;;;5092912;28;20036;-79
2021/11/01 00:58:14;;;;;;;0.17;0.17;;;14.50;99.90;;;;;;5093033;28;20409;-80
2021/11/01 01:00:40;;;;;;;0.00;0.00;;;14.50;99.90;;;;;;5093534;28;20039;-80
2021/11/01 01:03:06;;;;;;;0.00;0.00;;;14.50;99.90;;;;;;5091968;28;20032;-79
2021/11/01 01:05:31;;;;;;;0.43;0.38;;;14.60;99.90;;;;;;5092096;28;20039;-79
2021/11/01 01:07:57;;;;;;;0.00;0.00;;;14.60;99.90;;;;;;5093218;28;20032;-80
2021/11/01 01:10:23;;;;;;;0.00;0.00;;;14.60;99.90;;;;;;5091852;28;20036;-80
2021/11/01 01:12:49;;;;;;;1.65;0.52;;;14.60;99.90;;;;;;5092878;28;20028;-78
2021/11/01 01:15:23;;;;;;;0.08;0.08;;;14.50;99.90;;;;;;5091409;28;20032;-79
2021/11/01 01:17:50;;;;;;;0.65;0.65;;;14.50;99.90;;;;;;5091780;28;20460;-80
2021/11/01 01:20:18;;;;;;;0.00;0.00;;;14.40;99.90;;;;;;5093313;28;20075;-80
2021/11/01 01:22:46;;;;;;;0.00;0.00;;;14.30;99.90;;;;;;5091321;28;20029;-79
2021/11/01 01:25:41;;;;;;;0.00;0.00;;;14.20;99.90;;;;;;5091128;28;20038;-80
2021/11/01 01:28:09;;;;;;;0.00;0.00;;;13.90;99.90;;;;;;5107346;28;20036;-78
2021/11/01 01:30:35;;;;;;;0.00;0.00;;;13.50;99.90;;;;;;5092792;28;20404;-78
2021/11/01 01:33:01;;;;;;;0.00;0.00;;;13.30;99.90;;;;;;5092466;28;20396;-77
2021/11/01 01:35:27;;;;;;;0.00;0.00;;;13.10;99.90;;;;;;5092413;28;20028;-77
2021/11/01 01:37:54;;;;;;;0.00;0.00;;;13.00;99.90;;;;;;5091031;28;20032;-79
2021/11/01 01:40:20;;;;;;;0.00;0.00;;;12.90;99.90;;;;;;5092528;28;20448;-79
2021/11/01 01:42:46;;;;;;;0.08;0.08;;;12.90;99.90;;;;;;5094257;28;20063;-78
2021/11/01 01:45:13;;;;;;;0.00;0.00;;;12.70;99.90;;;;;;5101839;28;20035;-80
2021/11/01 01:47:41;;;;;;;0.00;0.00;;;12.70;99.90;;;;;;5105659;28;20024;-79
2021/11/01 01:50:11;;;;;;;0.00;0.00;;;12.50;99.90;;;;;;5097627;28;20043;-78
2021/11/01 01:52:38;;;;;;;0.00;0.00;;;12.40;99.90;;;;;;5094053;28;20051;-79
2021/11/01 01:55:08;;;;;;;0.00;0.00;;;12.30;99.90;;;;;;5095685;28;20044;-79
2021/11/01 01:57:35;;;;;;;0.10;0.10;;;12.30;99.90;;;;;;5098353;28;20028;-80
2021/11/01 02:00:09;;;;;;;0.00;0.00;;;12.20;99.90;;;;;;5101802;28;20089;-79
2021/11/01 02:02:35;;;;;;;0.65;0.47;;;12.20;99.90;;;;;;5102372;28;20093;-80
2021/11/01 02:05:01;;;;;;;0.00;0.00;;;12.10;99.90;;;;;;5101297;28;20036;-80
2021/11/01 02:07:42;;;;;;;0.00;0.00;;;12.10;99.90;;;;;;5096674;28;20036;-79
2021/11/01 02:10:12;;;;;;;0.10;0.10;;;12.10;99.90;;;;;;5092293;28;20032;-80
2021/11/01 02:12:55;;;;;;;0.00;0.00;;;12.00;99.90;;;;;;5091199;28;20121;-80
2021/11/01 02:15:40;;;;;;;0.00;0.00;;;12.00;99.90;;;;;;5091205;28;20039;-79
2021/11/01 02:18:09;;;;;;;0.00;0.00;;;12.00;99.90;;;;;;5091270;28;20084;-79
2021/11/01 02:20:54;;;;;;;0.00;0.00;;;12.00;99.90;;;;;;5090519;28;20429;-79
2021/11/01 02:23:35;;;;;;;0.00;0.00;;;12.00;99.90;;;;;;5091106;28;20028;-80
2021/11/01 02:26:04;;;;;;;0.00;0.00;;;12.00;99.90;;;;;;5074681;28;20396;-80
2021/11/01 02:28:35;;;;;;;0.00;0.00;;;12.00;99.90;;;;;;5090578;28;20111;-79
2021/11/01 02:31:08;;;;;;;0.00;0.00;;;12.00;99.90;;;;;;5091195;28;20035;-79
2021/11/01 02:33:35;;;;;;;0.00;0.00;;;12.00;99.90;;;;;;5092120;28;20047;-79
2021/11/01 02:36:03;;;;;;;0.00;0.00;;;12.00;99.90;;;;;;5093541;28;20103;-79
2021/11/01 02:38:31;;;;;;;0.10;0.10;;;12.00;99.90;;;;;;5094275;28;20560;-80
2021/11/01 02:40:58;;;;;;;0.00;0.00;;;12.00;99.90;;;;;;5095539;28;20043;-79
2021/11/01 02:43:26;;;;;;;0.00;0.00;;;11.90;99.90;;;;;;5094344;28;20035;-79
2021/11/01 02:45:55;;;;;;;0.43;0.43;;;11.90;99.90;;;;;;5095452;28;20115;-79
2021/11/01 02:48:21;;;;;;;0.00;0.00;;;11.90;99.90;;;;;;5093752;28;20552;-79
2021/11/01 02:50:47;;;;;;;0.25;0.25;;;11.80;99.90;;;;;;5095309;28;20162;-79
2021/11/01 02:53:13;;;;;;;0.00;0.00;;;11.60;99.90;;;;;;5095692;28;20036;-79
2021/11/01 02:55:38;;;;;;;0.00;0.00;;;11.60;99.90;;;;;;5094028;28;20503;-80
2021/11/01 02:58:05;;;;;;;21.73;1.08;;;11.50;99.90;;;;;;5095518;28;20036;-79
2021/11/01 03:00:33;;;;;;;0.00;0.00;;;11.60;99.90;;;;;;5094107;28;20028;-80
2021/11/01 03:02:59;;;;;;;0.10;0.10;;;11.60;99.90;;;;;;5095134;28;20028;-79
2021/11/01 03:05:28;;;;;;;0.00;0.00;;;11.60;99.90;;;;;;5094842;28;20032;-79
2021/11/01 03:07:57;;;;;;;0.45;0.45;;;11.60;99.90;;;;;;5094441;28;20117;-79
2021/11/01 03:10:25;;;;;;;4.13;0.63;;;11.60;99.90;;;;;;5093829;28;20111;-80
2021/11/01 03:12:54;;;;;;;0.00;0.00;;;11.60;99.90;;;;;;5093899;28;20039;-80
2021/11/01 03:15:23;;;;;;;0.30;0.30;;;11.60;99.90;;;;;;5093941;28;20039;-80
2021/11/01 03:18:09;;;;;;;0.00;0.00;;;11.60;99.90;;;;;;5094799;28;20027;-80
2021/11/01 03:20:43;;;;;;;0.17;0.17;;;11.60;99.90;;;;;;5093351;28;20123;-80
2021/11/01 03:23:18;;;;;;;0.00;0.00;;;11.50;99.90;;;;;;5093717;28;20085;-80
2021/11/01 03:26:04;;;;;;;0.00;0.00;;;11.50;99.90;;;;;;5093754;28;20032;-80
2021/11/01 03:28:32;;;;;;;0.00;0.00;;;11.50;99.90;;;;;;5093263;28;20036;-80
2021/11/01 03:31:03;;;;;;;0.00;0.00;;;11.50;99.90;;;;;;5093526;28;20028;-80
2021/11/01 03:33:39;;;;;;;0.00;0.00;;;11.50;99.90;;;;;;5093417;28;20035;-80
2021/11/01 03:36:10;;;;;;;0.00;0.00;;;11.50;99.90;;;;;;5094682;28;20392;-79
2021/11/01 03:38:38;;;;;;;0.00;0.00;;;11.50;99.90;;;;;;5094402;28;20039;-79
2021/11/01 03:41:08;;;;;;;0.00;0.00;;;11.60;99.90;;;;;;5093044;28;20028;-80
2021/11/01 03:43:44;;;;;;;0.05;0.05;;;11.60;99.90;;;;;;5094373;28;20024;-79
2021/11/01 03:46:11;;;;;;;0.00;0.00;;;11.60;99.90;;;;;;5092907;28;20036;-79
2021/11/01 03:48:43;;;;;;;0.00;0.00;;;11.60;99.90;;;;;;5092892;28;20043;-80
2021/11/01 03:51:14;;;;;;;0.00;0.00;;;11.60;99.90;;;;;;5094373;28;20036;-80
2021/11/01 03:53:40;;;;;;;0.00;0.00;;;11.60;99.90;;;;;;5093098;28;20043;-79
2021/11/01 03:56:07;;;;;;;0.00;0.00;;;11.60;99.90;;;;;;5093115;28;20036;-80
2021/11/01 03:58:34;;;;;;;0.00;0.00;;;11.60;99.90;;;;;;5092964;28;20545;-79
2021/11/01 04:01:01;;;;;;;0.00;0.00;;;11.60;99.90;;;;;;5094319;28;20111;-79
2021/11/01 04:03:28;;;;;;;0.00;0.00;;;11.60;99.90;;;;;;5092682;28;20035;-79
2021/11/01 04:06:01;;;;;;;0.30;0.30;;;11.60;99.90;;;;;;5092825;28;20032;-79
2021/11/01 04:08:27;;;;;;;0.00;0.00;;;11.60;99.90;;;;;;5092645;28;20036;-80
2021/11/01 04:10:54;;;;;;;0.00;0.00;;;11.60;99.90;;;;;;5093911;28;20507;-80
2021/11/01 04:13:20;;;;;;;0.00;0.00;;;11.60;99.90;;;;;;5092621;28;20459;-79
2021/11/01 04:15:52;;;;;;;0.00;0.00;;;11.60;99.90;;;;;;5092610;28;20062;-80
2021/11/01 04:18:26;;;;;;;0.00;0.00;;;11.60;99.90;;;;;;5093782;28;20085;-79
2021/11/01 04:20:55;;;;;;;0.00;0.00;;;11.60;99.90;;;;;;5092159;28;20126;-79
2021/11/01 04:23:29;;;;;;;0.00;0.00;;;11.60;99.90;;;;;;5093382;28;20477;-79
2021/11/01 04:25:56;;;;;;;1.65;1.08;;;11.60;99.90;;;;;;5093386;28;20043;-78
2021/11/01 04:28:21;;;;;;;0.00;0.00;;;11.60;99.90;;;;;;5109299;28;20028;-78
2021/11/01 04:30:53;;;;;;;0.20;0.20;;;11.60;99.90;;;;;;5092405;28;20089;-78
2021/11/01 04:33:22;;;;;;;0.00;0.00;;;11.60;99.90;;;;;;5093733;28;20032;-79
2021/11/01 04:35:48;;;;;;;0.10;0.10;;;11.60;99.90;;;;;;5092131;28;20477;-79
2021/11/01 04:54:11;;;;;;;0.00;0.00;;;11.50;99.90;;;;;;5093178;28;20493;-79
2021/11/01 04:56:37;;;;;;;0.00;0.00;;;11.50;99.90;;;;;;5092972;28;20043;-79
2021/11/01 04:59:03;;;;;;;0.00;0.00;;;11.50;99.90;;;;;;5092043;28;20024;-79
2021/11/01 05:01:41;;;;;;;0.00;0.00;;;11.50;99.90;;;;;;5092641;28;20032;-79
2021/11/01 05:04:11;;;;;;;0.00;0.00;;;11.40;99.90;;;;;;5092077;28;20039;-78
2021/11/01 05:06:42;;;;;;;0.00;0.00;;;11.40;99.90;;;;;;5089817;28;20484;-80
2021/11/01 05:09:15;;;;;;;0.05;0.05;;;11.40;99.90;;;;;;5091857;28;20032;-78
2021/11/01 05:11:56;;;;;;;0.00;0.00;;;11.40;99.90;;;;;;5075584;28;20392;-79
2021/11/01 05:14:29;;;;;;;0.00;0.00;;;11.40;99.90;;;;;;5092743;28;20115;-79
2021/11/01 05:19:40;;;;;;;0.10;0.10;;;11.40;99.90;;;;;;5092412;28;20048;-79
2021/11/01 05:25:05;;;;;;;0.00;0.00;;;11.30;99.90;;;;;;5074571;28;20119;-79
2021/11/01 05:30:21;;;;;;;0.00;0.00;;;11.30;99.90;;;;;;5091419;28;20020;-72
2021/11/01 05:35:39;;;;;;;;;;;11.30;99.90;;;;;;5091470;28;19958;-73
2021/11/01 05:38:05;;;;;;;0.00;0.00;;;11.30;99.90;;;;;;5092643;28;19912;-72
2021/11/01 05:40:33;;;;;;;1.55;0.47;;;11.20;99.90;;;;;;5091780;28;20036;-73
2021/11/01 05:42:59;;;;;;;0.00;0.00;;;11.20;99.90;;;;;;5091101;28;20115;-72
2021/11/01 05:45:25;;;;;;;0.10;0.10;;;11.20;99.90;;;;;;5092850;28;20133;-72
2021/11/01 05:47:58;;;;;;;0.00;0.00;;;11.20;99.90;;;;;;5092268;28;20035;-72
2021/11/01 05:50:27;;;;;;;0.00;0.00;;;11.20;99.90;;;;;;5092250;28;20038;-70
2021/11/01 05:52:53;;;;;;;0.10;0.10;;;11.20;99.90;;;;;;5090844;28;20032;-71
2021/11/01 06:06:00;;;;;;;0.00;0.00;;;11.10;99.90;;;;;;5092140;28;20173;-71
2021/11/01 06:08:42;;;;;;;0.00;0.00;;;11.10;99.90;;;;;;5092351;28;20035;-72
2021/11/01 06:13:55;;;;;;;0.00;0.00;;;11.10;99.90;;;;;;5096014;28;20157;-72
2021/11/01 06:16:22;;;;;;;0.00;0.00;;;11.20;99.90;;;;;;5096022;28;20040;-72
2021/11/01 06:18:49;;;;;;;0.05;0.05;;;11.10;99.90;;;;;;5094764;28;20043;-72
2021/11/01 06:21:17;;;;;;;0.00;0.00;;;11.10;99.90;;;;;;5095563;28;20047;-72
2021/11/01 06:23:55;;;;;;;14.60;3.55;;;11.10;99.90;;;;;;5094347;28;20068;-73
2021/11/01 06:26:23;;;;;;;0.00;0.00;;;11.10;99.90;;;;;;5094529;28;20473;-72
2021/11/01 06:28:56;;;;;;;0.00;0.00;;;11.00;99.90;;;;;;5095733;28;20592;-74
2021/11/01 06:31:27;;;;;;;0.00;0.00;;;11.00;99.90;;;;;;5094654;28;20028;-74
2021/11/01 06:50:12;;;;;;;0.00;0.00;;;11.00;99.90;;;;;;5095586;28;20479;-74
2021/11/01 06:55:42;;;;;;;14.05;1.65;;;11.00;99.90;;;;;;5094160;28;20028;-74
2021/11/01 07:17:00;;;;;;;0.00;0.00;;;10.80;99.90;;;;;;5074570;28;20036;-76
2021/11/01 07:19:49;;;;;;;0.00;0.00;;;10.80;99.90;;;;;;5073326;28;20040;-75
2021/11/01 07:38:21;;;;;;;0.00;0.00;;;10.90;99.90;;;;;;5036851;28;20045;-77
2021/11/01 09:04:15;;;;;;;0.00;0.00;;;11.10;99.90;;;;;;5091364;28;20032;-75
2021/11/01 09:20:16;;;;;;;0.00;0.00;;;11.20;99.90;;;;;;5089560;28;20558;-76
2021/11/01 09:25:39;;;;;;;0.00;0.00;;;11.20;99.90;;;;;;5078056;28;20075;-76
2021/11/01 09:41:08;;;;;;;0.00;0.00;;;11.40;99.90;;;;;;5077690;28;20025;-76
2021/11/01 09:43:36;;;;;;;0.00;0.00;;;11.40;99.90;;;;;;5092283;28;20028;-75
2021/11/01 09:46:10;;;;;;;0.00;0.00;;;11.40;99.90;;;;;;5091643;28;20040;-76
2021/11/01 09:48:38;;;;;;;0.00;0.00;;;11.50;99.90;;;;;;5091519;28;20051;-76
2021/11/01 09:51:04;;;;;;;0.00;0.00;;;11.50;99.90;;;;;;5092374;28;20029;-74
2021/11/01 09:53:39;;;;;;;0.00;0.00;;;11.50;99.90;;;;;;5091012;28;20085;-75
2021/11/01 09:56:17;;;;;;;0.00;0.00;;;11.50;99.90;;;;;;5075457;28;20028;-75
2021/11/01 10:01:28;;;;;;;0.00;0.00;;;11.50;99.90;;;;;;5092083;28;20055;-75
2021/11/01 10:03:54;;;;;;;0.00;0.00;;;11.50;99.90;;;;;;5090706;28;20473;-75
2021/11/01 10:06:22;;;;;;;0.00;0.00;;;11.50;99.90;;;;;;5092357;28;20036;-75
2021/11/01 10:08:59;;;;;;;0.00;0.00;;;11.50;99.90;;;;;;5090692;28;20039;-76
2021/11/01 10:11:37;;;;;;;0.45;0.45;;;11.50;99.90;;;;;;5090890;28;20056;-75
2021/11/01 10:14:06;;;;;;;0.00;0.00;;;11.50;99.90;;;;;;5090651;28;20105;-75
2021/11/01 10:19:33;;;;;;;0.00;0.00;;;11.40;99.90;;;;;;5091885;28;20044;-75
2021/11/01 10:22:09;;;;;;;0.00;0.00;;;11.50;99.90;;;;;;5091720;28;20032;-76
2021/11/01 10:24:39;;;;;;;0.00;0.00;;;11.50;99.90;;;;;;5091004;28;20036;-76
2021/11/01 10:27:09;;;;;;;0.00;0.00;;;11.50;99.90;;;;;;5090335;28;20067;-76
2021/11/01 10:30:07;;;;;;;0.20;0.20;;;11.50;99.90;;;;;;5091803;28;20059;-76
2021/11/01 10:32:48;;;;;;;0.00;0.00;;;11.40;99.90;;;;;;5090804;28;20039;-75
2021/11/01 10:35:25;;;;;;;0.00;0.00;;;11.40;99.90;;;;;;5090764;28;20024;-75
2021/11/01 10:38:43;;;;;;;0.00;0.00;;;11.40;99.90;;;;;;5090768;28;20545;-75
2021/11/01 10:41:21;;;;;;;0.00;0.00;;;11.40;99.90;;;;;;5093384;28;20075;-75
2021/11/01 10:44:00;;;;;;;0.00;0.00;;;11.40;99.90;;;;;;5060542;28;20032;-74
2021/11/01 11:13:19;;;;;;;0.00;0.00;;;11.70;99.90;;;;;;5093211;28;20485;-78
2021/11/01 11:15:50;;;;;;;0.00;0.00;;;11.80;99.90;;;;;;5089659;28;20039;-72
2021/11/01 11:39:32;;;;;;;0.00;0.00;;;12.50;99.90;;;;;;5072480;28;20465;-71
2021/11/01 11:50:46;;;;;;;0.00;0.00;;;12.60;99.90;;;;;;5094061;28;20028;-72
2021/11/01 11:53:21;;;;;;;0.00;0.00;;;12.70;99.90;;;;;;5094174;28;20058;-71
2021/11/01 11:56:08;;;;;;;0.00;0.00;;;13.00;99.90;;;;;;5094122;28;20032;-72
2021/11/01 11:58:50;;;;;;;0.00;0.00;;;12.90;99.90;;;;;;5093228;28;20502;-71
2021/11/01 12:01:24;;;;;;;;;;;12.70;99.90;;;;;;5094394;28;20036;-72
2021/11/01 12:03:51;;;;;;;0.00;0.00;;;12.70;99.90;;;;;;5093685;28;19912;-71
2021/11/01 12:06:22;;;;;;;0.20;0.20;;;12.70;99.90;;;;;;5092782;28;20064;-71
2021/11/01 12:09:01;;;;;;;;;;;12.70;99.90;;;;;;5093679;28;20051;-73
2021/11/01 12:11:34;;;;;;;0.00;0.00;;;12.80;99.90;;;;;;5092589;28;19956;-72
2021/11/01 12:14:31;;;;;;;0.00;0.00;;;12.70;99.90;;;;;;5093644;28;20028;-74
2021/11/01 12:19:29;;;;;;;0.00;0.00;;;12.60;99.90;;;;;;5093719;28;20064;-73
2021/11/01 12:22:02;;;;;;;0.00;0.00;;;12.50;99.90;;;;;;5093699;28;20071;-73
2021/11/01 12:24:28;;;;;;;0.00;0.00;;;12.60;99.90;;;;;;5093595;28;20126;-73
2021/11/01 12:27:06;;;;;;;0.00;0.00;;;12.60;99.90;;;;;;5093304;28;20495;-76
2021/11/01 12:29:34;;;;;;;0.00;0.00;;;12.80;99.90;;;;;;5092317;28;20039;-77
2021/11/01 12:32:10;;;;;;;0.00;0.00;;;12.80;99.90;;;;;;5092152;28;20032;-77
2021/11/01 12:35:04;;;;;;;0.03;0.03;;;12.80;99.90;;;;;;5093574;28;20039;-75
2021/11/01 12:37:46;;;;;;;0.00;0.00;;;12.70;99.90;;;;;;5093234;28;20032;-75
2021/11/01 12:40:53;;;;;;;0.00;0.00;;;12.70;99.90;;;;;;5094542;28;20032;-71
2021/11/01 12:46:35;;;;;;;0.55;0.55;;;13.00;99.90;;;;;;5091847;28;20464;-71
2021/11/01 12:57:34;;;;;;;0.00;0.00;;;13.60;99.90;;;;;;5072632;28;20024;-71
2021/11/01 13:00:01;;;;;;;0.00;0.00;;;13.50;99.90;;;;;;5072275;28;20370;-72
2021/11/01 13:02:29;;;;;;;0.65;0.52;;;13.30;99.90;;;;;;5088054;28;20032;-71
2021/11/01 13:04:58;;;;;;;0.00;0.00;;;13.10;99.90;;;;;;5072354;28;20033;-71
2021/11/01 13:10:45;;;;;;;0.00;0.00;;;13.00;99.90;;;;;;5072651;28;20036;-71
2021/11/01 13:18:43;;;;;;;0.80;0.40;;;12.90;99.90;;;;;;5082624;28;20036;-72
2021/11/01 13:21:22;;;;;;;0.00;0.00;;;12.90;99.90;;;;;;5091181;28;20078;-72
2021/11/01 13:24:00;;;;;;;0.00;0.00;;;12.90;99.90;;;;;;5090858;28;20397;-72
2021/11/01 13:34:41;;;;;;;0.00;0.00;;;12.90;99.90;;;;;;5092669;28;20035;-72
2021/11/01 13:35:13;;;;;;;0.00;0.00;;;12.80;99.90;;;;;;5092392;28;20100;-72
2021/11/01 13:37:41;;;;;;;0.00;0.00;;;12.80;99.90;;;;;;5091067;28;20032;-71
2021/11/01 13:40:08;;;;;;;0.70;0.57;;;12.70;99.90;;;;;;5086858;28;20037;-71
2021/11/01 13:42:34;;;;;;;0.00;0.00;;;12.80;99.90;;;;;;5086751;28;20040;-72
2021/11/01 13:45:13;;;;;;;0.10;0.10;;;12.90;99.90;;;;;;5090874;28;20481;-72
2021/11/01 13:47:57;;;;;;;0.00;0.00;;;12.90;99.90;;;;;;5092026;28;20047;-73
2021/11/01 13:50:39;;;;;;;0.00;0.00;;;13.00;99.90;;;;;;5090987;28;20058;-72
2021/11/01 13:53:17;;;;;;;0.20;0.20;;;13.10;99.90;;;;;;5090699;28;20389;-71
2021/11/01 14:01:33;;;;;;;;;;;13.10;99.90;;;;;;5091654;28;20059;-70
2021/11/01 14:31:14;;;;;;;0.55;0.55;;;13.70;99.90;;;;;;5085703;28;20036;-80
2021/11/01 15:19:14;;;;;;;0.00;0.00;;;13.20;99.90;;;;;;5074162;28;20140;-77
2021/11/01 15:24:25;;;;;;;0.13;0.13;;;13.00;99.90;;;;;;5072891;28;20389;-79
2021/11/01 16:15:37;;;;;;;0.00;0.00;;;12.10;99.90;;;;;;5073206;28;20036;-73
2021/11/01 16:18:06;;;;;;;0.00;0.00;;;12.00;99.90;;;;;;5072315;28;20036;-75
2021/11/01 16:20:33;;;;;;;0.00;0.00;;;11.80;99.90;;;;;;5073204;28;20048;-75
2021/11/01 16:23:44;;;;;;;0.10;0.10;;;11.90;99.90;;;;;;5072065;28;20041;-74
2021/11/01 16:25:55;;;;;;;0.00;0.00;;;11.80;99.90;;;;;;5072375;28;20037;-72
2021/11/01 16:28:23;;;;;;;0.00;0.00;;;11.90;99.90;;;;;;5081982;28;20438;-72
2021/11/01 16:31:08;;;;;;;0.28;0.20;;;11.90;99.90;;;;;;5093288;28;20077;-75
2021/11/01 16:33:43;;;;;;;0.00;0.00;;;11.90;99.90;;;;;;5075421;28;20396;-73
2021/11/01 16:36:19;;;;;;;0.00;0.00;;;11.80;99.90;;;;;;5092072;28;20032;-73
2021/11/01 16:38:51;;;;;;;0.00;0.00;;;11.80;99.90;;;;;;5076915;28;20032;-75
2021/11/01 16:41:22;;;;;;;0.10;0.10;;;11.80;99.90;;;;;;5091709;28;20039;-75
2021/11/01 16:43:49;;;;;;;;;;;11.70;99.90;;;;;;5075935;28;20039;-73
2021/11/01 16:46:15;;;;;;;0.00;0.00;;;11.60;99.90;;;;;;5092100;28;19912;-73
2021/11/01 16:48:45;;;;;;;0.15;0.15;;;11.60;99.90;;;;;;5091856;28;20040;-73
2021/11/01 16:51:12;;;;;;;0.10;0.10;;;11.60;99.90;;;;;;5092732;28;20524;-70
2021/11/01 16:53:49;;;;;;;0.10;0.10;;;11.50;99.90;;;;;;5091650;28;20039;-71
2021/11/01 16:59:15;;;;;;;0.08;0.08;;;11.50;99.90;;;;;;5092137;28;20032;-66
2021/11/01 17:01:50;;;;;;;0.80;0.80;;;11.50;99.90;;;;;;5091354;28;20074;-68
2021/11/01 17:04:18;;;;;;;0.52;0.30;;;11.40;99.90;;;;;;5092574;28;20550;-68
2021/11/01 17:22:54;;;;;;;0.00;0.00;;;11.20;99.90;;;;;;5092300;28;20459;-69
2021/11/01 17:25:24;;;;;;;0.00;0.00;;;11.10;99.90;;;;;;5091266;28;20063;-69
2021/11/01 17:30:53;;;;;;;0.05;0.05;;;11.00;99.90;;;;;;5092148;28;20060;-68
2021/11/01 18:51:37;;;;;;;0.45;0.45;;;10.30;99.90;;;;;;5095470;28;20111;-68
2021/11/01 18:54:15;;;;;;;0.00;0.00;;;10.30;99.90;;;;;;5096246;28;20402;-68
2021/11/01 18:56:43;;;;;;;0.13;0.13;;;10.30;99.90;;;;;;5094368;28;20035;-67
2021/11/01 18:59:10;;;;;;;0.00;0.00;;;10.30;99.90;;;;;;5094089;28;20028;-68
2021/11/01 19:01:41;;;;;;;0.00;0.00;;;10.30;99.90;;;;;;5095091;28;20035;-68
2021/11/01 19:04:16;;;;;;;0.03;0.03;;;10.30;99.90;;;;;;5095453;28;20040;-68
2021/11/01 19:06:52;;;;;;;0.00;0.00;;;10.30;99.90;;;;;;5095113;28;20473;-68
2021/11/01 19:09:42;;;;;;;0.20;0.20;;;10.20;99.90;;;;;;5094834;28;20401;-69
2021/11/01 20:05:50;;;;;;;1.25;1.15;;;9.00;99.90;;;;;;5097446;28;20044;-69
2021/11/01 20:08:41;;;;;;;1.55;0.80;;;9.00;99.90;;;;;;5092548;28;20028;-69
2021/11/01 21:27:00;;;;;;;0.20;0.20;;;8.40;99.90;;;;;;5091626;28;20028;-69
2021/11/01 21:29:34;;;;;;;0.00;0.00;;;8.40;99.90;;;;;;5091470;28;20035;-70
2021/11/01 21:32:02;;;;;;;0.13;0.13;;;8.50;99.90;;;;;;5091405;28;20431;-69
2021/11/01 21:36:55;;;;;;;0.00;0.00;;;8.50;99.90;;;;;;5092669;28;20108;-69
2021/11/01 21:39:21;;;;;;;0.55;0.55;;;8.60;99.90;;;;;;5091263;28;20112;-69
2021/11/01 21:41:47;;;;;;;0.30;0.30;;;8.60;99.90;;;;;;5090770;28;20063;-69
2021/11/01 21:44:13;;;;;;;0.52;0.52;;;8.50;99.90;;;;;;5092665;28;20742;-69
2021/11/01 21:46:39;;;;;;;0.00;0.00;;;8.50;99.90;;;;;;5092284;28;20134;-69
2021/11/01 21:49:04;;;;;;;0.20;0.20;;;8.40;99.90;;;;;;5092242;28;20043;-69
2021/11/01 21:51:37;;;;;;;0.10;0.10;;;8.40;99.90;;;;;;5092271;28;20078;-69
2021/11/01 21:56:36;;;;;;;0.10;0.10;;;8.40;99.90;;;;;;5090942;28;20089;-69
2021/11/01 22:10:01;;;;;;;0.20;0.20;;;8.30;99.90;;;;;;5092168;28;20036;-69
2021/11/01 22:18:06;;;;;;;0.00;0.00;;;8.30;99.90;;;;;;5090954;28;20053;-70
2021/11/01 22:20:36;;;;;;;0.17;0.17;;;8.30;99.90;;;;;;5090513;28;20051;-69
2021/11/01 22:34:01;;;;;;;0.05;0.05;;;8.10;99.90;;;;;;5091134;28;20488;-70
2021/11/01 22:39:32;;;;;;;1.85;1.75;;;8.00;99.90;;;;;;5090800;28;20063;-70
2021/11/01 22:44:42;;;;;;;0.55;0.55;;;8.00;99.90;;;;;;5090901;28;20047;-69
2021/11/01 22:57:52;;;;;;;0.13;0.13;;;8.00;99.90;;;;;;5095362;28;20042;-69
2021/11/01 23:00:29;;;;;;;0.00;0.00;;;7.90;99.90;;;;;;5094056;28;20400;-70
2021/11/01 23:03:01;;;;;;;0.00;0.00;;;7.90;99.90;;;;;;5095486;28;20044;-70
2021/11/01 23:06:01;;;;;;;0.43;0.43;;;7.80;99.90;;;;;;5094566;28;20111;-69
2021/11/01 23:32:56;;;;;;;0.47;0.47;;;7.60;99.90;;;;;;5093780;28;20063;-69
2021/11/01 23:35:22;;;;;;;0.75;0.75;;;7.60;99.90;;;;;;5093420;28;20058;-69
2021/11/01 23:37:48;;;;;;;0.60;0.43;;;7.60;99.90;;;;;;5094880;28;20040;-69
2021/11/01 23:40:14;;;;;;;0.05;0.05;;;7.60;99.90;;;;;;5094449;28;20032;-69
2021/11/01 23:42:39;;;;;;;2.28;1.45;;;7.60;99.90;;;;;;5094445;28;20097;-69
2021/11/01 23:45:06;;;;;;;0.00;0.00;;;7.70;99.90;;;;;;5094540;28;20077;-69
2021/11/01 23:47:32;;;;;;;0.20;0.20;;;7.70;99.90;;;;;;5093084;28;20034;-69
2021/11/01 23:49:57;;;;;;;0.00;0.00;;;7.70;99.90;;;;;;5094418;28;20111;-69
2021/11/01 23:52:24;;;;;;;0.20;0.20;;;7.70;99.90;;;;;;5093199;28;20031;-69
2021/11/01 23:54:50;;;;;;;0.17;0.17;;;7.60;99.90;;;;;;5094319;28;20032;-69
2021/11/01 23:57:19;;;;;;;0.57;0.55;;;7.60;99.90;;;;;;5094168;28;20180;-69
2021/11/01 23:59:48;;;;;;;0.00;0.00;;;7.60;99.90;;;;;;5093099;28;20119;-69
